Time;durP1;ratioP1;P1;durP2;ratioP2;P2;SDS_P1;SDS_P2;PMS_P1;PMS_P2;Temp;Humidity;BMP_temperature;BMP_pressure;BME280_temperature;BME280_humidity;BME280_pressure;Samples;Min_cycle;Max_cycle;Signal;HPM_P1;HPM_P2
2022/10/29 00:01:53;;;;;;;0.70;0.70;;;10.70;99.90;;;;;;5093011;28;20222;-74
2022/10/29 00:04:19;;;;;;;0.60;0.60;;;10.70;99.90;;;;;;5093121;28;20197;-74
2022/10/29 00:06:46;;;;;;;0.50;0.50;;;10.70;99.90;;;;;;5093375;28;20166;-74
2022/10/29 00:09:11;;;;;;;0.57;0.57;;;10.60;99.90;;;;;;5093308;28;20178;-74
2022/10/29 00:11:37;;;;;;;0.60;0.60;;;10.60;99.90;;;;;;5092901;28;20574;-76
2022/10/29 00:14:02;;;;;;;0.60;0.60;;;10.60;99.90;;;;;;5093508;28;20186;-74
2022/10/29 00:16:34;;;;;;;0.67;0.67;;;10.50;99.90;;;;;;5093269;28;20182;-74
2022/10/29 00:18:59;;;;;;;0.50;0.50;;;10.70;99.90;;;;;;5093333;28;20266;-74
2022/10/29 00:21:25;;;;;;;0.60;0.60;;;10.70;99.90;;;;;;5092631;28;20205;-74
2022/10/29 00:23:52;;;;;;;0.50;0.50;;;10.70;99.90;;;;;;5092763;28;20193;-76
2022/10/29 00:26:19;;;;;;;0.60;0.60;;;10.60;99.90;;;;;;5093371;28;20197;-75
2022/10/29 00:28:45;;;;;;;0.60;0.60;;;10.60;99.90;;;;;;5093126;28;20169;-74
2022/10/29 00:31:15;;;;;;;0.60;0.60;;;10.60;99.90;;;;;;5092649;28;20201;-74
2022/10/29 00:33:42;;;;;;;0.50;0.50;;;10.70;99.90;;;;;;5092984;28;20170;-75
2022/10/29 00:36:20;;;;;;;0.60;0.60;;;10.50;99.90;;;;;;5092504;28;20207;-75
2022/10/29 00:38:46;;;;;;;0.57;0.57;;;10.50;99.90;;;;;;5092913;28;20213;-75
2022/10/29 00:41:15;;;;;;;0.53;0.53;;;10.40;99.90;;;;;;5092298;28;20197;-74
2022/10/29 00:43:47;;;;;;;0.50;0.50;;;10.50;99.90;;;;;;5092357;28;20177;-75
2022/10/29 00:46:28;;;;;;;0.70;0.70;;;10.50;99.90;;;;;;5088959;28;20214;-74
2022/10/29 00:48:55;;;;;;;0.60;0.60;;;10.30;99.90;;;;;;5087479;28;20706;-74
2022/10/29 00:51:21;;;;;;;0.43;0.43;;;10.10;99.90;;;;;;5091926;28;20196;-74
2022/10/29 00:53:53;;;;;;;0.60;0.60;;;10.00;99.90;;;;;;5092349;28;20536;-74
2022/10/29 00:56:20;;;;;;;0.50;0.50;;;10.10;99.90;;;;;;5092663;28;20178;-74
2022/10/29 00:58:46;;;;;;;0.60;0.60;;;10.10;99.90;;;;;;5092197;28;20251;-74
2022/10/29 01:01:12;;;;;;;0.57;0.57;;;10.20;99.90;;;;;;5091748;28;20197;-75
2022/10/29 01:03:38;;;;;;;0.60;0.60;;;10.20;99.90;;;;;;5091932;28;20197;-74
2022/10/29 01:06:04;;;;;;;0.50;0.50;;;;;;;;;;5092467;28;20182;-74
2022/10/29 01:08:30;;;;;;;0.40;0.40;;;10.20;99.90;;;;;;5092243;28;20676;-75
2022/10/29 01:11:23;;;;;;;0.40;0.40;;;10.20;99.90;;;;;;5091334;28;20233;-74
2022/10/29 01:14:05;;;;;;;0.50;0.50;;;10.20;99.90;;;;;;5092152;28;20197;-75
2022/10/29 01:16:44;;;;;;;0.60;0.60;;;10.20;99.90;;;;;;5091890;28;20180;-74
2022/10/29 01:19:26;;;;;;;0.70;0.70;;;10.20;99.90;;;;;;5092132;28;20205;-75
2022/10/29 01:21:59;;;;;;;0.70;0.70;;;10.20;99.90;;;;;;5091846;28;20190;-75
2022/10/29 01:24:48;;;;;;;0.67;0.67;;;10.20;99.90;;;;;;5092011;28;20216;-76
2022/10/29 01:27:45;;;;;;;0.50;0.50;;;10.20;99.90;;;;;;5092075;28;20182;-75
2022/10/29 01:30:45;;;;;;;0.70;0.70;;;10.30;99.90;;;;;;5091193;28;20173;-76
2022/10/29 01:33:50;;;;;;;0.60;0.60;;;10.40;99.90;;;;;;5077534;28;20185;-75
2022/10/29 01:36:32;;;;;;;0.70;0.70;;;10.50;99.90;;;;;;5091947;28;20193;-75
2022/10/29 01:39:05;;;;;;;0.57;0.57;;;10.40;99.90;;;;;;5092064;28;20209;-75
2022/10/29 01:41:41;;;;;;;0.40;0.40;;;10.50;99.90;;;;;;5091262;28;20641;-75
2022/10/29 01:44:24;;;;;;;0.50;0.50;;;10.60;99.90;;;;;;5091399;28;20226;-75
2022/10/29 01:47:00;;;;;;;0.50;0.50;;;10.70;99.90;;;;;;5092041;28;20181;-75
2022/10/29 01:49:35;;;;;;;0.60;0.60;;;10.60;99.90;;;;;;5091447;28;20196;-75
2022/10/29 01:52:03;;;;;;;0.60;0.60;;;10.70;99.90;;;;;;5076388;28;20228;-75
2022/10/29 01:54:29;;;;;;;0.50;0.50;;;10.60;99.90;;;;;;5090208;28;20193;-75
2022/10/29 01:56:55;;;;;;;0.63;0.63;;;10.60;99.90;;;;;;5091165;28;20568;-75
2022/10/29 01:59:25;;;;;;;0.60;0.60;;;10.60;99.90;;;;;;5090715;28;20217;-76
2022/10/29 02:02:14;;;;;;;0.50;0.50;;;10.60;99.90;;;;;;5083144;28;20662;-76
2022/10/29 02:04:56;;;;;;;0.30;0.30;;;10.50;99.90;;;;;;5091422;28;20190;-75
2022/10/29 02:07:55;;;;;;;0.70;0.70;;;10.50;99.90;;;;;;5091887;28;20277;-76
2022/10/29 02:10:34;;;;;;;0.50;0.50;;;10.40;99.90;;;;;;5091272;28;20626;-76
2022/10/29 02:13:00;;;;;;;0.60;0.60;;;10.30;99.90;;;;;;5091610;28;20177;-75
2022/10/29 02:15:36;;;;;;;0.57;0.57;;;10.30;99.90;;;;;;5092025;28;20264;-76
2022/10/29 02:18:04;;;;;;;0.60;0.60;;;10.40;99.90;;;;;;5077000;28;20292;-76
2022/10/29 02:20:29;;;;;;;0.67;0.67;;;10.40;99.90;;;;;;5091165;28;20197;-76
2022/10/29 02:22:55;;;;;;;0.50;0.50;;;10.30;99.90;;;;;;5092157;28;20215;-76
2022/10/29 02:25:21;;;;;;;0.60;0.60;;;10.20;99.90;;;;;;5092250;28;20700;-76
2022/10/29 02:27:47;;;;;;;0.60;0.60;;;10.20;99.90;;;;;;5092949;28;20188;-76
2022/10/29 02:30:13;;;;;;;0.60;0.60;;;10.10;99.90;;;;;;5095855;28;20193;-76
2022/10/29 02:32:39;;;;;;;0.53;0.53;;;10.20;99.90;;;;;;5096847;28;20185;-76
2022/10/29 02:35:05;;;;;;;0.60;0.60;;;10.20;99.90;;;;;;5096957;28;20204;-75
2022/10/29 02:37:30;;;;;;;0.63;0.63;;;10.30;99.90;;;;;;5097244;28;20311;-75
2022/10/29 02:39:56;;;;;;;0.40;0.40;;;10.30;99.90;;;;;;5097380;28;20210;-75
2022/10/29 02:42:21;;;;;;;0.50;0.50;;;10.30;99.90;;;;;;5097845;28;20196;-75
2022/10/29 02:44:47;;;;;;;0.50;0.50;;;10.30;99.90;;;;;;5095817;28;20268;-74
2022/10/29 02:47:13;;;;;;;0.57;0.57;;;10.40;99.90;;;;;;5095715;28;20185;-75
2022/10/29 02:49:38;;;;;;;0.50;0.50;;;10.40;99.90;;;;;;5094477;28;20688;-75
2022/10/29 02:52:04;;;;;;;0.50;0.50;;;10.40;99.90;;;;;;5095302;28;20201;-75
2022/10/29 02:54:30;;;;;;;0.60;0.60;;;10.50;99.90;;;;;;5095009;28;20180;-74
2022/10/29 02:56:55;;;;;;;0.47;0.47;;;10.50;99.90;;;;;;5094981;28;20527;-74
2022/10/29 02:59:21;;;;;;;0.60;0.60;;;10.50;99.90;;;;;;5094749;28;20205;-75
2022/10/29 03:01:46;;;;;;;0.50;0.50;;;10.60;99.90;;;;;;5094245;28;20197;-75
2022/10/29 03:04:12;;;;;;;0.43;0.43;;;10.60;99.90;;;;;;5094495;28;20678;-74
2022/10/29 03:06:37;;;;;;;0.50;0.50;;;10.70;99.90;;;;;;5094583;28;20646;-75
2022/10/29 03:09:04;;;;;;;0.50;0.50;;;10.70;99.90;;;;;;5094651;28;20262;-74
2022/10/29 03:11:29;;;;;;;0.50;0.50;;;10.70;99.90;;;;;;5094112;28;20193;-75
2022/10/29 03:13:55;;;;;;;0.50;0.50;;;10.70;99.90;;;;;;5094324;28;20177;-74
2022/10/29 03:16:20;;;;;;;0.50;0.50;;;10.70;99.90;;;;;;5095048;28;20178;-75
2022/10/29 03:18:46;;;;;;;0.53;0.53;;;10.70;99.90;;;;;;5094151;28;20202;-75
2022/10/29 03:21:11;;;;;;;0.50;0.50;;;10.80;99.90;;;;;;5093659;28;20213;-75
2022/10/29 03:23:37;;;;;;;0.60;0.60;;;10.90;99.90;;;;;;5094360;28;20174;-75
2022/10/29 03:26:03;;;;;;;0.40;0.40;;;10.90;99.90;;;;;;5094074;28;20166;-74
2022/10/29 03:28:29;;;;;;;0.60;0.60;;;10.80;99.90;;;;;;5094419;28;20266;-74
2022/10/29 03:30:58;;;;;;;0.60;0.60;;;10.70;99.90;;;;;;5093701;28;20193;-74
2022/10/29 03:33:27;;;;;;;0.50;0.50;;;10.80;99.90;;;;;;5094115;28;20174;-75
2022/10/29 03:36:00;;;;;;;0.60;0.60;;;10.90;99.90;;;;;;5093785;28;20181;-74
2022/10/29 03:38:25;;;;;;;0.70;0.70;;;11.00;99.90;;;;;;5094077;28;20205;-75
2022/10/29 03:40:51;;;;;;;0.70;0.70;;;11.10;99.90;;;;;;5092832;28;20182;-75
2022/10/29 03:43:17;;;;;;;0.60;0.60;;;11.10;99.90;;;;;;5093423;28;20174;-75
2022/10/29 03:45:43;;;;;;;0.50;0.50;;;11.00;99.90;;;;;;5091921;28;20174;-75
2022/10/29 03:48:08;;;;;;;0.50;0.50;;;11.00;99.90;;;;;;5094129;28;20492;-75
2022/10/29 03:50:34;;;;;;;0.60;0.60;;;10.90;99.90;;;;;;5093395;28;20190;-75
2022/10/29 03:52:59;;;;;;;0.50;0.50;;;10.90;99.90;;;;;;5094030;28;20248;-75
2022/10/29 03:55:27;;;;;;;0.60;0.60;;;10.90;99.90;;;;;;5093616;28;20166;-75
2022/10/29 03:57:53;;;;;;;0.60;0.60;;;10.90;99.90;;;;;;5093390;28;20205;-75
2022/10/29 04:00:19;;;;;;;0.40;0.40;;;10.90;99.90;;;;;;5092784;28;20533;-76
2022/10/29 04:02:44;;;;;;;0.50;0.50;;;10.90;99.90;;;;;;5093779;28;20184;-76
2022/10/29 04:05:10;;;;;;;0.60;0.60;;;11.00;99.90;;;;;;5092975;28;20256;-76
2022/10/29 04:07:35;;;;;;;0.50;0.50;;;11.00;99.90;;;;;;5093469;28;20232;-76
2022/10/29 04:10:01;;;;;;;0.50;0.50;;;11.00;99.90;;;;;;5092813;28;20174;-75
2022/10/29 04:12:26;;;;;;;0.50;0.50;;;11.10;99.90;;;;;;5093427;28;20688;-75
2022/10/29 04:14:52;;;;;;;0.40;0.40;;;11.00;99.90;;;;;;5093060;28;20673;-75
2022/10/29 04:17:17;;;;;;;0.60;0.60;;;11.10;99.90;;;;;;5093183;28;20181;-75
2022/10/29 04:19:43;;;;;;;0.50;0.50;;;11.10;99.90;;;;;;5076232;28;20192;-75
2022/10/29 04:22:09;;;;;;;0.53;0.53;;;11.10;99.90;;;;;;5093389;28;20201;-75
2022/10/29 04:24:34;;;;;;;0.40;0.40;;;11.10;99.90;;;;;;5093284;28;20178;-75
2022/10/29 04:27:00;;;;;;;0.50;0.50;;;11.10;99.90;;;;;;5092893;28;20181;-75
2022/10/29 04:29:25;;;;;;;0.60;0.60;;;11.30;99.90;;;;;;5092698;28;20178;-74
2022/10/29 04:31:51;;;;;;;0.53;0.53;;;11.40;99.90;;;;;;5093075;28;20202;-75
2022/10/29 04:34:16;;;;;;;0.50;0.50;;;11.30;99.90;;;;;;5093060;28;20185;-75
2022/10/29 04:36:42;;;;;;;0.60;0.60;;;11.20;99.90;;;;;;5092959;28;20192;-75
2022/10/29 04:39:07;;;;;;;0.40;0.40;;;11.20;99.90;;;;;;5092831;28;20217;-75
2022/10/29 04:41:33;;;;;;;0.50;0.50;;;11.20;99.90;;;;;;5088783;28;20331;-76
2022/10/29 04:44:00;;;;;;;0.40;0.40;;;11.00;99.90;;;;;;5088250;28;20657;-75
2022/10/29 04:46:25;;;;;;;0.50;0.50;;;10.90;99.90;;;;;;5092489;28;20657;-75
2022/10/29 04:48:51;;;;;;;0.50;0.50;;;10.80;99.90;;;;;;5092393;28;20178;-75
2022/10/29 04:51:22;;;;;;;0.50;0.50;;;10.80;99.90;;;;;;5091408;28;20613;-75
2022/10/29 04:53:48;;;;;;;0.50;0.50;;;10.80;99.90;;;;;;5092304;28;20695;-75
2022/10/29 04:56:13;;;;;;;0.40;0.40;;;10.70;99.90;;;;;;5092550;28;20174;-75
2022/10/29 04:58:39;;;;;;;0.50;0.50;;;10.70;99.90;;;;;;5092229;28;20725;-75
2022/10/29 05:01:04;;;;;;;0.50;0.50;;;10.70;99.90;;;;;;5091821;28;20198;-75
2022/10/29 05:03:31;;;;;;;0.40;0.40;;;10.80;99.90;;;;;;5092567;28;20190;-75
2022/10/29 05:05:57;;;;;;;0.50;0.50;;;10.70;99.90;;;;;;5089741;28;20206;-75
2022/10/29 05:08:23;;;;;;;0.50;0.50;;;10.70;99.90;;;;;;5085351;28;20205;-75
2022/10/29 05:10:49;;;;;;;0.57;0.57;;;10.60;99.90;;;;;;5085222;28;20303;-75
2022/10/29 05:13:14;;;;;;;0.50;0.50;;;10.60;99.90;;;;;;5083273;28;20686;-75
2022/10/29 05:15:40;;;;;;;0.50;0.50;;;10.70;99.90;;;;;;5084294;28;20174;-76
2022/10/29 05:18:06;;;;;;;0.50;0.50;;;10.50;99.90;;;;;;5086009;28;20216;-75
2022/10/29 05:20:32;;;;;;;0.50;0.50;;;10.50;99.90;;;;;;5089993;28;20194;-75
2022/10/29 05:23:06;;;;;;;0.60;0.60;;;10.60;99.90;;;;;;5092054;28;20234;-75
2022/10/29 05:25:34;;;;;;;0.60;0.60;;;10.60;99.90;;;;;;5091944;28;20189;-75
2022/10/29 05:28:01;;;;;;;0.50;0.50;;;10.50;99.90;;;;;;5092071;28;20547;-75
2022/10/29 05:30:26;;;;;;;0.57;0.57;;;10.40;99.90;;;;;;5090966;28;20697;-75
2022/10/29 05:32:52;;;;;;;0.60;0.60;;;10.30;99.90;;;;;;5092014;28;20178;-75
2022/10/29 05:35:17;;;;;;;0.60;0.60;;;10.20;99.90;;;;;;5091754;28;20239;-75
2022/10/29 05:37:53;;;;;;;0.60;0.60;;;10.20;99.90;;;;;;5091467;28;20210;-75
2022/10/29 05:40:20;;;;;;;0.60;0.60;;;10.10;99.90;;;;;;5091208;28;20296;-75
2022/10/29 05:42:46;;;;;;;0.60;0.60;;;10.10;99.90;;;;;;5091485;28;20348;-76
2022/10/29 05:45:12;;;;;;;0.53;0.53;;;10.00;99.90;;;;;;5091670;28;20590;-76
2022/10/29 05:47:37;;;;;;;0.50;0.50;;;10.00;99.90;;;;;;5091607;28;20630;-75
2022/10/29 05:50:03;;;;;;;0.60;0.60;;;9.90;99.90;;;;;;5089259;28;20185;-75
2022/10/29 05:52:29;;;;;;;0.60;0.60;;;9.90;99.90;;;;;;5088297;28;20646;-75
2022/10/29 05:54:55;;;;;;;0.57;0.57;;;9.80;99.90;;;;;;5091525;28;20207;-74
2022/10/29 05:57:20;;;;;;;0.50;0.50;;;9.80;99.90;;;;;;5091093;28;20540;-75
2022/10/29 05:59:46;;;;;;;0.50;0.50;;;9.70;99.90;;;;;;5091057;28;20296;-75
2022/10/29 06:02:11;;;;;;;0.60;0.60;;;9.70;99.90;;;;;;5091315;28;20201;-75
2022/10/29 06:04:37;;;;;;;0.60;0.60;;;9.70;99.90;;;;;;5091228;28;20189;-74
2022/10/29 06:07:03;;;;;;;0.50;0.50;;;9.70;99.90;;;;;;5091234;28;20209;-75
2022/10/29 06:09:28;;;;;;;0.57;0.57;;;9.70;99.90;;;;;;5089810;28;20186;-74
2022/10/29 06:11:54;;;;;;;0.60;0.60;;;9.60;99.90;;;;;;5091126;28;20609;-74
2022/10/29 06:14:20;;;;;;;0.63;0.63;;;9.60;99.90;;;;;;5078684;28;20176;-73
2022/10/29 06:16:46;;;;;;;0.70;0.70;;;9.50;99.90;;;;;;5090972;28;20239;-75
2022/10/29 06:19:11;;;;;;;0.63;0.63;;;9.70;99.90;;;;;;5073131;28;20237;-75
2022/10/29 06:21:37;;;;;;;0.50;0.50;;;9.60;99.90;;;;;;5089112;28;20565;-75
2022/10/29 06:24:03;;;;;;;0.50;0.50;;;9.60;99.90;;;;;;5090904;28;20224;-74
2022/10/29 06:26:28;;;;;;;0.60;0.60;;;9.60;99.90;;;;;;5091665;28;20239;-75
2022/10/29 06:28:54;;;;;;;0.60;0.60;;;9.60;99.90;;;;;;5091166;28;20265;-75
2022/10/29 06:31:19;;;;;;;0.60;0.60;;;9.70;99.90;;;;;;5088060;28;20621;-75
2022/10/29 06:33:45;;;;;;;0.60;0.60;;;9.70;99.90;;;;;;5090343;28;20184;-73
2022/10/29 06:36:10;;;;;;;0.50;0.50;;;9.70;99.90;;;;;;5090433;28;20201;-75
2022/10/29 06:38:36;;;;;;;0.60;0.60;;;9.70;99.90;;;;;;5090376;28;20197;-75
2022/10/29 06:41:02;;;;;;;0.60;0.60;;;9.80;99.90;;;;;;5089765;28;20626;-75
2022/10/29 06:43:27;;;;;;;0.60;0.60;;;9.90;99.90;;;;;;5091105;28;20566;-74
2022/10/29 06:45:53;;;;;;;0.60;0.60;;;9.90;99.90;;;;;;5091443;28;20504;-75
2022/10/29 06:48:18;;;;;;;0.47;0.47;;;10.00;99.90;;;;;;5089490;28;20182;-75
2022/10/29 06:50:44;;;;;;;0.63;0.63;;;10.20;99.90;;;;;;5089158;28;20204;-75
2022/10/29 06:53:12;;;;;;;0.57;0.57;;;10.40;99.90;;;;;;5085443;28;20185;-75
2022/10/29 06:55:37;;;;;;;0.40;0.40;;;10.60;99.90;;;;;;5088760;28;20189;-76
2022/10/29 06:58:11;;;;;;;0.40;0.40;;;10.70;99.90;;;;;;5089085;28;20594;-77
2022/10/29 07:00:36;;;;;;;0.60;0.60;;;11.00;99.90;;;;;;5089075;28;20193;-77
2022/10/29 07:03:03;;;;;;;0.40;0.40;;;11.40;99.90;;;;;;5090286;28;20193;-76
2022/10/29 07:05:30;;;;;;;0.50;0.50;;;11.90;99.90;;;;;;5088938;28;20238;-79
2022/10/29 07:07:56;;;;;;;0.47;0.47;;;12.30;99.90;;;;;;5089915;28;20196;-78
2022/10/29 07:10:22;;;;;;;0.40;0.40;;;12.80;99.90;;;;;;5089424;28;20190;-77
2022/10/29 07:12:48;;;;;;;0.43;0.43;;;13.30;99.90;;;;;;5086659;28;20217;-76
2022/10/29 07:15:14;;;;;;;0.40;0.40;;;13.80;27.40;;;;;;5092395;28;20174;-77
2022/10/29 07:17:39;;;;;;;0.50;0.50;;;14.20;1.00;;;;;;5094376;28;20206;-78
2022/10/29 07:20:06;;;;;;;0.30;0.30;;;14.50;1.00;;;;;;5094670;28;20204;-79
2022/10/29 07:22:33;;;;;;;0.30;0.30;;;15.00;1.00;;;;;;5085694;28;20181;-78
2022/10/29 07:24:58;;;;;;;0.30;0.30;;;15.20;1.00;;;;;;5096401;28;20185;-78
2022/10/29 07:27:24;;;;;;;0.33;0.33;;;15.10;1.00;;;;;;5092280;28;20342;-77
2022/10/29 07:29:50;;;;;;;0.30;0.30;;;14.90;1.00;;;;;;5089005;28;20187;-79
2022/10/29 07:32:15;;;;;;;0.30;0.30;;;15.10;1.00;;;;;;5092784;28;20246;-78
2022/10/29 07:34:41;;;;;;;0.30;0.30;;;15.30;1.00;;;;;;5089932;28;20196;-78
2022/10/29 07:37:06;;;;;;;0.30;0.30;;;15.50;1.00;;;;;;5096092;28;20174;-78
2022/10/29 07:39:32;;;;;;;0.30;0.30;;;15.90;1.00;;;;;;5092755;28;20390;-78
2022/10/29 07:41:57;;;;;;;0.30;0.30;;;15.80;1.00;;;;;;5087933;28;20256;-78
2022/10/29 07:44:23;;;;;;;0.40;0.40;;;15.40;1.00;;;;;;5091824;28;20174;-78
2022/10/29 07:46:48;;;;;;;0.30;0.30;;;15.30;1.00;;;;;;5092930;28;20173;-78
2022/10/29 07:49:14;;;;;;;0.20;0.20;;;15.20;1.00;;;;;;5093609;28;20169;-79
2022/10/29 07:51:40;;;;;;;0.30;0.30;;;15.40;1.00;;;;;;5090924;28;20222;-79
2022/10/29 07:54:06;;;;;;;0.40;0.40;;;16.00;1.00;;;;;;5088395;28;20169;-77
2022/10/29 07:56:31;;;;;;;0.30;0.30;;;16.40;1.00;;;;;;5093574;28;20210;-77
2022/10/29 07:58:57;;;;;;;0.40;0.40;;;16.80;1.00;;;;;;5096293;28;20214;-78
2022/10/29 08:01:22;;;;;;;0.30;0.30;;;17.30;99.90;;;;;;5094180;28;20682;-77
2022/10/29 08:03:51;;;;;;;0.30;0.30;;;17.20;1.00;;;;;;5093128;28;20262;-76
2022/10/29 08:06:17;;;;;;;0.40;0.40;;;17.50;99.90;;;;;;5095183;28;20181;-78
2022/10/29 08:08:42;;;;;;;0.50;0.50;;;17.90;99.90;;;;;;5095932;28;20262;-78
2022/10/29 08:11:08;;;;;;;0.50;0.50;;;18.10;99.90;;;;;;5094939;28;20562;-78
2022/10/29 08:13:33;;;;;;;0.43;0.43;;;18.40;1.00;;;;;;5093304;28;20543;-76
2022/10/29 08:15:59;;;;;;;0.60;0.60;;;18.50;99.90;;;;;;5095476;28;20208;-77
2022/10/29 08:18:24;;;;;;;0.60;0.60;;;18.60;1.00;;;;;;5093760;28;20214;-77
2022/10/29 08:20:50;;;;;;;0.60;0.60;;;18.70;1.00;;;;;;5093101;28;20204;-77
2022/10/29 08:23:16;;;;;;;0.60;0.60;;;19.20;1.00;;;;;;5093881;28;20277;-77
2022/10/29 08:25:42;;;;;;;0.50;0.50;;;19.40;1.00;;;;;;5094432;28;20264;-78
2022/10/29 08:28:13;;;;;;;0.60;0.60;;;19.70;1.00;;;;;;5094367;28;20182;-78
2022/10/29 08:30:40;;;;;;;0.50;0.50;;;19.90;1.00;;;;;;5077892;28;20194;-76
2022/10/29 08:33:06;;;;;;;0.60;0.60;;;20.70;99.90;;;;;;5094304;28;20223;-77
2022/10/29 08:35:32;;;;;;;0.73;0.73;;;20.80;99.90;;;;;;5093636;28;20217;-78
2022/10/29 08:37:58;;;;;;;0.60;0.60;;;21.00;99.90;;;;;;5093261;28;20624;-77
2022/10/29 08:40:36;;;;;;;0.57;0.57;;;21.20;99.90;;;;;;5093443;28;20694;-77
2022/10/29 08:43:35;;;;;;;0.70;0.70;;;21.30;99.90;;;;;;5096065;28;20223;-76
2022/10/29 08:46:01;;;;;;;0.60;0.60;;;21.40;99.90;;;;;;5098353;28;20173;-77
2022/10/29 08:48:33;;;;;;;0.60;0.60;;;21.60;83.90;;;;;;5096329;28;20192;-77
2022/10/29 08:51:25;;;;;;;0.60;0.60;;;21.40;99.90;;;;;;5085391;28;20232;-76
2022/10/29 08:53:54;;;;;;;0.40;0.40;;;21.90;99.90;;;;;;5093706;28;20174;-77
2022/10/29 08:56:35;;;;;;;0.40;0.40;;;22.00;99.90;;;;;;5101268;28;20185;-77
2022/10/29 08:59:12;;;;;;;0.50;0.50;;;21.90;1.00;;;;;;5100614;28;20212;-77
2022/10/29 09:01:38;;;;;;;0.32;0.32;;;22.20;43.70;;;;;;5087757;28;20197;-76
2022/10/29 09:04:23;;;;;;;0.40;0.40;;;22.60;35.10;;;;;;5087683;28;20178;-77
2022/10/29 09:07:03;;;;;;;0.40;0.40;;;23.00;1.00;;;;;;5095739;28;20260;-78
2022/10/29 09:09:43;;;;;;;0.30;0.30;;;22.80;1.00;;;;;;5094684;28;20212;-78
2022/10/29 09:12:42;;;;;;;0.40;0.40;;;23.10;1.00;;;;;;5098824;28;20632;-78
2022/10/29 09:15:47;;;;;;;0.50;0.50;;;23.60;1.00;;;;;;5100971;28;20182;-77
2022/10/29 09:18:57;;;;;;;0.60;0.60;;;23.40;1.00;;;;;;5092570;28;20201;-78
2022/10/29 09:21:54;;;;;;;0.47;0.47;;;23.80;1.00;;;;;;5113458;22;20270;-86
2022/10/29 09:24:48;;;;;;;0.50;0.50;;;24.30;1.00;;;;;;5114163;28;20296;-87
2022/10/29 09:27:28;;;;;;;0.30;0.30;;;24.10;1.00;;;;;;5101981;28;20177;-88
2022/10/29 09:29:59;;;;;;;0.45;0.45;;;24.00;1.00;;;;;;5138155;27;20177;-87
2022/10/29 09:32:39;;;;;;;0.45;0.45;;;24.70;1.00;;;;;;5124717;27;20199;-84
2022/10/29 09:35:14;;;;;;;0.40;0.40;;;25.00;1.00;;;;;;5130216;27;20252;-84
2022/10/29 09:37:50;;;;;;;0.50;0.50;;;25.20;1.00;;;;;;5130529;27;20169;-83
2022/10/29 09:40:18;;;;;;;0.50;0.50;;;25.20;1.00;;;;;;5113418;28;20249;-84
2022/10/29 09:42:46;;;;;;;0.50;0.50;;;25.20;1.00;;;;;;5120508;27;20177;-79
2022/10/29 09:45:16;;;;;;;0.50;0.50;;;25.00;1.00;;;;;;5122831;28;20200;-82
2022/10/29 09:47:44;;;;;;;0.45;0.45;;;24.10;1.00;;;;;;5128899;27;20173;-79
2022/10/29 09:50:27;;;;;;;0.40;0.40;;;24.00;1.00;;;;;;5129807;27;20164;-83
2022/10/29 09:52:53;;;;;;;0.60;0.60;;;24.10;1.00;;;;;;5127245;27;20721;-81
2022/10/29 09:55:25;;;;;;;0.43;0.43;;;24.40;1.00;;;;;;5120146;28;20177;-84
2022/10/29 09:57:53;;;;;;;0.60;0.60;;;24.90;1.00;;;;;;5134081;27;20201;-84
2022/10/29 10:00:25;;;;;;;0.53;0.53;;;25.50;1.00;;;;;;5126686;27;20200;-83
2022/10/29 10:03:07;;;;;;;0.80;0.80;;;25.90;1.00;;;;;;5126375;28;20191;-78
2022/10/29 10:05:34;;;;;;;0.60;0.60;;;26.00;1.00;;;;;;5120786;27;20223;-80
2022/10/29 10:08:02;;;;;;;0.60;0.60;;;25.90;1.00;;;;;;5122796;27;20169;-80
2022/10/29 10:10:28;;;;;;;0.52;0.52;;;25.70;1.00;;;;;;5126283;27;20193;-82
2022/10/29 10:13:01;;;;;;;0.70;0.70;;;25.80;1.00;;;;;;5122793;28;20669;-84
2022/10/29 10:15:36;;;;;;;0.43;0.43;;;26.60;1.00;;;;;;5123569;27;20173;-84
2022/10/29 10:18:21;;;;;;;0.40;0.40;;;26.70;1.00;;;;;;5123456;28;20204;-83
2022/10/29 10:21:06;;;;;;;0.52;0.52;;;27.20;1.00;;;;;;5119417;28;20195;-82
2022/10/29 10:23:52;;;;;;;0.40;0.40;;;27.30;1.00;;;;;;5121349;28;20190;-84
2022/10/29 10:26:38;;;;;;;0.30;0.30;;;27.30;1.00;;;;;;5107462;28;20165;-85
2022/10/29 10:29:14;;;;;;;0.38;0.38;;;27.20;1.00;;;;;;5115469;28;20186;-83
2022/10/29 10:31:41;;;;;;;0.13;0.13;;;26.70;1.00;;;;;;5115032;28;20625;-83
2022/10/29 10:34:14;;;;;;;0.30;0.30;;;26.90;1.00;;;;;;5118029;28;20177;-84
2022/10/29 10:36:43;;;;;;;0.20;0.20;;;27.00;1.00;;;;;;5116198;28;20169;-82
2022/10/29 10:39:43;;;;;;;0.25;0.25;;;27.50;1.00;;;;;;5117219;28;20214;-82
2022/10/29 10:42:15;;;;;;;0.20;0.20;;;27.30;1.00;;;;;;5115577;28;20298;-79
2022/10/29 10:44:51;;;;;;;0.32;0.32;;;27.50;1.00;;;;;;5111382;28;20193;-80
2022/10/29 10:47:18;;;;;;;0.20;0.20;;;27.70;1.00;;;;;;5108986;28;20251;-78
2022/10/29 10:49:44;;;;;;;0.03;0.03;;;27.90;1.00;;;;;;5108541;28;20279;-81
2022/10/29 10:52:26;;;;;;;0.10;0.10;;;27.80;1.00;;;;;;5107853;28;20231;-81
2022/10/29 10:54:57;;;;;;;0.10;0.10;;;28.00;1.00;;;;;;5109074;28;20181;-81
2022/10/29 10:57:32;;;;;;;0.10;0.10;;;27.50;1.00;;;;;;5110910;28;20182;-80
2022/10/29 11:00:03;;;;;;;0.20;0.20;;;28.50;1.00;;;;;;5114608;28;20231;-78
2022/10/29 11:02:57;;;;;;;0.05;0.05;;;28.20;1.00;;;;;;5119307;28;20583;-81
2022/10/29 11:05:37;;;;;;;0.30;0.30;;;27.50;1.00;;;;;;5119068;28;20423;-81
2022/10/29 11:08:19;;;;;;;0.30;0.30;;;28.10;1.00;;;;;;5120705;28;20267;-82
2022/10/29 11:10:53;;;;;;;0.20;0.20;;;27.80;1.00;;;;;;5120588;28;20278;-80
2022/10/29 11:13:25;;;;;;;0.30;0.30;;;27.80;1.00;;;;;;5122253;28;20240;-82
2022/10/29 11:15:54;;;;;;;0.30;0.30;;;28.40;1.00;;;;;;5119026;28;20599;-81
2022/10/29 11:18:45;;;;;;;0.20;0.20;;;28.20;1.00;;;;;;5119400;28;20209;-83
2022/10/29 11:21:35;;;;;;;0.40;0.40;;;27.40;1.00;;;;;;5119318;28;20197;-82
2022/10/29 11:24:01;;;;;;;0.50;0.50;;;27.80;1.00;;;;;;5119529;28;20165;-82
2022/10/29 11:26:52;;;;;;;0.45;0.45;;;28.30;1.00;;;;;;5120662;28;20188;-81
2022/10/29 11:29:42;;;;;;;0.45;0.45;;;28.00;1.00;;;;;;5104657;28;20653;-80
2022/10/29 11:32:26;;;;;;;0.30;0.30;;;28.40;1.00;;;;;;5118902;28;20209;-83
2022/10/29 11:35:16;;;;;;;0.40;0.40;;;29.10;1.00;;;;;;5122287;28;20255;-79
2022/10/29 11:38:03;;;;;;;0.20;0.20;;;29.40;1.00;;;;;;5119591;28;20177;-83
2022/10/29 11:40:50;;;;;;;0.50;0.50;;;29.20;1.00;;;;;;5119822;28;20204;-81
2022/10/29 11:43:19;;;;;;;0.30;0.30;;;29.10;1.00;;;;;;5108592;28;20192;-81
2022/10/29 11:46:07;;;;;;;0.43;0.43;;;29.40;1.00;;;;;;5121095;28;20531;-81
2022/10/29 11:48:54;;;;;;;0.30;0.30;;;28.80;1.00;;;;;;5119848;28;20175;-82
2022/10/29 11:51:28;;;;;;;0.47;0.47;;;28.90;1.00;;;;;;5118549;28;20193;-81
2022/10/29 11:54:08;;;;;;;0.60;0.60;;;29.50;1.00;;;;;;5119406;28;20642;-81
2022/10/29 11:56:42;;;;;;;0.43;0.43;;;29.80;1.00;;;;;;5119339;28;20181;-80
2022/10/29 11:59:14;;;;;;;0.30;0.30;;;30.10;1.00;;;;;;5118671;28;20819;-80
2022/10/29 12:01:56;;;;;;;0.40;0.40;;;30.00;1.00;;;;;;5117082;28;20249;-81
2022/10/29 12:04:27;;;;;;;0.40;0.40;;;29.90;1.00;;;;;;5102242;28;20194;-81
2022/10/29 12:07:11;;;;;;;0.30;0.30;;;29.90;1.00;;;;;;5118133;28;20177;-81
2022/10/29 12:10:04;;;;;;;0.30;0.30;;;30.50;1.00;;;;;;5117461;28;20199;-82
2022/10/29 12:12:39;;;;;;;0.30;0.30;;;30.20;1.00;;;;;;5117046;28;20184;-80
2022/10/29 12:15:25;;;;;;;0.50;0.50;;;30.20;1.00;;;;;;5119160;28;20204;-79
2022/10/29 12:18:05;;;;;;;0.30;0.30;;;30.70;1.00;;;;;;5118843;28;20207;-80
2022/10/29 12:20:45;;;;;;;0.40;0.40;;;29.90;1.00;;;;;;5117114;28;20197;-79
2022/10/29 12:23:30;;;;;;;0.60;0.60;;;28.70;1.00;;;;;;5118275;28;20197;-81
2022/10/29 12:26:21;;;;;;;0.57;0.57;;;28.30;1.00;;;;;;5117679;28;20207;-83
2022/10/29 12:29:13;;;;;;;0.57;0.57;;;28.80;1.00;;;;;;5116917;28;20568;-81
2022/10/29 12:31:54;;;;;;;0.60;0.60;;;28.10;1.00;;;;;;5117124;28;20205;-82
2022/10/29 12:34:32;;;;;;;0.63;0.63;;;27.50;1.00;;;;;;5117722;28;20170;-77
2022/10/29 12:37:08;;;;;;;0.70;0.70;;;26.50;1.00;;;;;;5132945;28;20230;-80
2022/10/29 12:39:37;;;;;;;0.70;0.70;;;26.70;1.00;;;;;;5119495;28;20208;-81
2022/10/29 12:42:13;;;;;;;0.63;0.63;;;27.50;1.00;;;;;;5121619;28;20193;-80
2022/10/29 12:45:01;;;;;;;0.50;0.50;;;27.80;1.00;;;;;;5115371;28;20168;-79
2022/10/29 12:47:43;;;;;;;0.73;0.73;;;28.00;1.00;;;;;;5115839;28;20311;-80
2022/10/29 12:50:33;;;;;;;0.60;0.60;;;28.40;1.00;;;;;;5119199;28;20253;-81
2022/10/29 12:53:20;;;;;;;0.50;0.50;;;27.90;1.00;;;;;;5118662;28;20614;-81
2022/10/29 12:55:46;;;;;;;0.60;0.60;;;27.00;1.00;;;;;;5118603;28;20192;-81
2022/10/29 12:58:47;;;;;;;0.60;0.60;;;26.90;1.00;;;;;;5118904;28;20208;-80
2022/10/29 13:01:25;;;;;;;0.50;0.50;;;27.10;1.00;;;;;;5118451;28;20196;-81
2022/10/29 13:03:53;;;;;;;0.50;0.50;;;26.80;1.00;;;;;;5119012;28;20334;-83
2022/10/29 13:06:56;;;;;;;0.60;0.60;;;26.30;1.00;;;;;;5119891;28;20230;-79
2022/10/29 13:09:27;;;;;;;0.30;0.30;;;25.60;1.00;;;;;;5099434;28;20181;-82
2022/10/29 13:12:10;;;;;;;0.47;0.47;;;25.10;1.00;;;;;;5117411;28;20283;-78
2022/10/29 13:14:47;;;;;;;0.60;0.60;;;25.70;1.00;;;;;;5114004;28;20544;-80
2022/10/29 13:17:30;;;;;;;0.50;0.50;;;26.50;1.00;;;;;;5118937;28;20184;-81